ADDS METAR Data INFO
IDs: Format: Raw Decoded Include TAF

Data at: 0202 UTC 26 Apr 2017

METAR for:KJCT (Junction/Kimble Cnty, TX, US)
Text:KJCT 260151Z AUTO 17008KT 10SM CLR 27/16 A2948 RMK AO2 SLP947 T02720156 TSNO
Temperature: 27.2°C ( 81°F)
Dewpoint: 15.6°C ( 60°F) [RH = 49%]
Pressure (altimeter):29.48 inches Hg ( 998.4 mb) [Sea level pressure: 994.7 mb]
Winds:from the S (170 degrees) at 9 MPH (8 knots; 4.1 m/s)
Visibility:10 or more sm (16+ km)
Ceiling:at least 12,000 feet AGL
Clouds:sky clear below 12,000 feet AGL
QC Flag:automated observation with no human augmentation


Page loaded:  02:02 UTC  |   07:02 PM Pacific  |   08:02 PM Mountain  |   09:02 PM Central  |   10:02 PM Eastern

 

ADVISORIES

FORECASTS

FORECASTS

OBSERVATIONS

USER TOOLS

ABOUT US